Latest Coastal Weather Observations for Moorabbin Airport

IDV60701

Issued at 7:42 am EST Thursday 13 August 2020 (issued every 10 minutes, with the page automatically refreshed every 10 minutes)

About coastal observations | Map of coastal stations | Coastal observations for VIC | Marine services | Other Formats
Station Details ID: 086077 Name: MOORABBIN AIRPORT Lat: -37.98 Lon: 145.10 Height: 12.1 m
Data from the previous 72 hours. | See also: Recent months at Moorabbin Airport
Date/Time
EST
Wind Sea
Height
m
Swell Vis
km
Cloud Weather Temp
°C
Press
hPa
Rain since
9am
mm
Dir  Spd
kts
Gust
kts
Height
m
Period
s
Dir
13/07:30am N 9 11 - - - - 10 Partly cloudy - 12.3 1010.5 0.4
13/07:00am N 8 10 - - - - 10 Partly cloudy - 12.3 1010.3 0.4
13/06:30am N 7 9 - - - - 10 Partly cloudy - 12.1 1009.9 0.4
13/06:00am N 6 7 - - - - 10 Cloudy - 11.1 1009.7 0.4
13/05:30am NNE 6 7 - - - - 10 Partly cloudy - 10.3 1009.5 0.4
13/05:00am NNE 5 6 - - - - 10 Partly cloudy - 10.0 1009.3 0.4
13/04:30am N 6 8 - - - - 10 Partly cloudy - 11.4 1009.1 0.4
13/04:00am N 7 9 - - - - 10 Cloudy - 12.4 1008.9 0.4
13/03:30am N 8 11 - - - - 10 Cloudy - 12.5 1008.9 0.4
13/03:00am N 8 11 - - - - 10 Cloudy - 12.0 1008.8 0.4
13/02:30am NNE 5 7 - - - - 10 Partly cloudy - 11.3 1009.0 0.4
13/02:00am NE 6 6 - - - - 10 Partly cloudy - 11.7 1009.1 0.4
13/01:30am CALM 0 0 - - - - 10 Partly cloudy - 11.6 1009.2 0.2
13/01:00am NW 2 3 - - - - 10 Partly cloudy - 12.5 1009.2 0.2
13/12:30am WSW 4 6 - - - - 10 Partly cloudy - 12.9 1009.2 0.0
13/12:00am N 7 11 - - - - 10 Cloudy - 13.3 1008.8 0.0
 
Date/Time
EST
Wind Sea
Height
m
Swell Vis
km
Cloud Weather Temp
°C
Press
hPa
Rain since
9am
mm
Dir  Spd
kts
Gust
kts
Height
m
Period
s
Dir
12/11:30pm N 8 11 - - - - 10 Cloudy - 13.4 1008.8 0.0
12/11:00pm NNE 8 12 - - - - 10 Partly cloudy - 13.2 1008.8 0.0
12/10:30pm NNE 12 15 - - - - 10 - - 12.9 1008.8 0.0
12/10:00pm N 13 16 - - - - 10 Partly cloudy - 12.7 1008.8 0.0
12/09:30pm NNE 12 16 - - - - 10 Partly cloudy - 12.8 1008.8 0.0
12/09:00pm NNE 12 15 - - - - 10 Mostly cloudy - 12.8 1008.8 0.0
12/08:30pm N 13 15 - - - - 10 Cloudy - 12.9 1008.8 0.0
12/08:00pm N 10 13 - - - - 10 Partly cloudy - 12.3 1008.8 0.0
12/07:30pm N 10 12 - - - - 10 - - 12.1 1008.7 0.0
12/07:00pm N 10 12 - - - - 10 - - 12.3 1008.3 0.0
12/06:30pm N 11 15 - - - - 10 Partly cloudy - 12.8 1008.1 0.0
12/06:00pm N 9 15 - - - - 10 Cloudy - 13.6 1007.9 0.0
12/05:30pm NNW 8 12 - - - - 10 Partly cloudy - 13.7 1007.7 0.0
12/05:00pm NNW 10 14 - - - - 10 Partly cloudy - 14.2 1007.5 0.0
12/04:30pm NNW 12 16 - - - - 10 Partly cloudy - 15.4 1007.5 0.0
12/04:00pm NNW 10 14 - - - - 10 Partly cloudy - 15.6 1007.5 0.0
12/03:30pm N 8 11 - - - - 10 Partly cloudy - 15.2 1007.4 0.0
12/03:00pm N 13 17 - - - - 10 Cloudy - 14.9 1007.4 0.0
12/02:30pm N 13 20 - - - - 10 Partly cloudy - 15.5 1007.4 0.0
12/02:00pm N 17 21 - - - - 10 Partly cloudy - 15.1 1007.4 0.0
12/01:30pm N 14 19 - - - - 10 Partly cloudy - 15.0 1007.8 0.0
12/01:00pm N 15 22 - - - - 10 Partly cloudy - 15.7 1008.2 0.0
12/12:30pm N 12 15 - - - - 10 Partly cloudy - 15.1 1008.4 0.0
12/12:00pm N 13 19 - - - - 10 Mostly cloudy - 14.8 1009.0 0.0
12/11:30am N 15 18 - - - - 10 Partly cloudy - 14.4 1009.3 0.0
12/11:00am N 16 20 - - - - 10 Cloudy - 14.1 1009.6 0.0
12/10:30am N 15 19 - - - - 10 Cloudy - 13.6 1009.9 0.0
12/10:00am N 13 17 - - - - 10 Cloudy - 13.6 1010.1 0.0
12/09:30am N 13 17 - - - - 10 Partly cloudy - 12.3 1010.3 0.0
12/09:00am N 11 15 - - - - 10 Cloudy - 11.9 1010.7 2.2
12/08:30am N 12 17 - - - - 10 Partly cloudy - 11.5 1010.7 2.2
12/08:00am NNE 12 16 - - - - 10 Partly cloudy - 10.9 1010.5 2.2
12/07:30am N 9 11 - - - - 10 Cloudy - 10.5 1011.0 2.2
12/07:00am NNE 7 9 - - - - 10 Partly cloudy - 10.3 1011.0 2.2
12/06:30am NNE 9 13 - - - - 10 Partly cloudy - 10.3 1011.1 2.2
12/06:00am N 9 12 - - - - 10 Cloudy Rain 10.4 1011.1 1.4
12/05:30am N 8 11 - - - - 10 Partly cloudy - 10.5 1011.2 0.6
12/05:00am N 8 10 - - - - 10 Cloudy - 10.6 1011.0 0.2
12/04:30am N 10 14 - - - - 10 Partly cloudy - 11.1 1010.8 0.0
12/04:00am N 12 15 - - - - 10 Partly cloudy - 11.7 1010.8 0.0
12/03:30am NNE 12 16 - - - - 10 Partly cloudy - 11.9 1010.9 0.0
12/03:00am N 13 18 - - - - 10 Cloudy - 12.2 1011.2 0.0
12/02:30am NNE 12 17 - - - - 10 Cloudy - 12.4 1011.4 0.0
12/02:00am NNE 10 14 - - - - 10 Cloudy - 12.4 1012.0 0.0
12/01:30am NNE 13 20 - - - - 10 Partly cloudy - 12.4 1012.2 0.0
12/01:00am N 13 21 - - - - 10 Partly cloudy - 12.1 1012.7 0.0
12/12:30am NNE 12 16 - - - - 10 Cloudy - 12.5 1012.6 0.0
12/12:00am N 10 13 - - - - 10 Cloudy - 12.2 1013.0 0.0
 
Date/Time
EST
Wind Sea
Height
m
Swell Vis
km
Cloud Weather Temp
°C
Press
hPa
Rain since
9am
mm
Dir  Spd
kts
Gust
kts
Height
m
Period
s
Dir
11/11:30pm NNE 10 15 - - - - 10 Partly cloudy - 12.2 1013.0 0.0
11/11:00pm NNE 9 12 - - - - 10 - - 11.8 1013.2 0.0
11/10:30pm NNE 13 17 - - - - 10 - - 12.2 1013.4 0.0
11/10:00pm N 11 14 - - - - 10 - - 11.9 1013.7 0.0
11/09:30pm N 12 17 - - - - 10 - - 11.9 1013.6 0.0
11/09:00pm NNE 11 16 - - - - 10 Cloudy - 12.1 1013.6 0.0
11/08:30pm N 11 14 - - - - 10 - - 12.3 1014.0 0.0
11/08:00pm NE 8 13 - - - - 10 - - 12.4 1014.0 0.0
11/07:30pm NNE 8 13 - - - - 10 - - 12.4 1014.2 0.0
11/07:00pm N 10 14 - - - - 10 - - 12.6 1014.2 0.0
11/06:30pm N 11 15 - - - - 10 - - 12.5 1013.7 0.0
11/06:00pm N 10 16 - - - - 10 Mostly cloudy - 12.9 1013.4 0.0
11/05:30pm NNE 11 16 - - - - 10 - - 12.9 1013.7 0.0
11/05:00pm N 13 20 - - - - 10 - - 13.3 1013.7 0.0
11/04:30pm N 16 24 - - - - 10 - - 13.7 1014.0 0.0
11/04:00pm N 16 20 - - - - 10 - - 14.8 1014.2 0.0
11/03:30pm N 18 24 - - - - 10 - - 15.3 1014.2 0.0
11/03:00pm N 19 25 - - - - 10 Mostly cloudy - 15.2 1014.8 0.0
11/02:30pm N 13 19 - - - - 10 - - 16.2 1014.7 0.0
11/02:00pm NNW 18 27 - - - - 10 - - 15.6 1015.2 0.0
11/01:39pm N 18 28 - - - - 10 - - 15.6 1015.4 0.0
11/01:30pm N 12 21 - - - - 10 - - 14.5 1015.6 0.0
11/01:00pm N 13 18 - - - - 10 - - 13.9 1016.3 0.0
11/12:36pm NNW 15 25 - - - - 10 - - 13.9 1016.6 0.0
11/12:30pm N 13 19 - - - - 10 - - 14.3 1016.8 0.0
11/12:00pm N 15 21 - - - - 10 Mostly cloudy - 13.8 1017.3 0.0
11/11:30am N 15 18 - - - - 10 - - 14.2 1017.8 0.0
11/11:00am N 16 20 - - - - 10 - - 13.7 1018.0 0.0
11/10:30am N 9 13 - - - - 10 - - 13.2 1018.2 0.0
11/10:00am N 8 13 - - - - 10 - - 12.0 1018.6 0.0
11/09:30am NNW 5 7 - - - - 10 - - 10.1 1018.6 0.0
11/09:00am NNW 7 8 - - - - 10 - - 8.7 1018.6 0.0
11/08:30am WNW 6 7 - - - - 10 - - 6.3 1019.1 0.0
11/08:00am NW 3 4 - - - - 10 - - 2.9 1019.2 0.0
11/07:30am NW 3 5 - - - - 10 - - 3.5 1018.9 0.0
11/07:00am NNW 2 3 - - - - 10 - - 2.7 1018.6 0.0
11/06:30am NNE 4 6 - - - - 10 - - 2.4 1018.3 0.0
11/06:00am NW 2 4 - - - - 10 - - 3.0 1018.5 0.0
11/05:30am CALM 0 0 - - - - 10 - - 2.4 1018.6 0.0
11/05:00am CALM 0 0 - - - - 8 - - 3.0 1018.9 0.0
11/04:30am CALM 0 0 - - - - 10 - - 2.5 1019.2 0.0
11/04:01am CALM 0 0 - - - - 10 - - 2.7 1019.2 0.0
11/04:00am CALM 0 0 - - - - 10 - - 2.8 1019.2 0.0
11/03:30am N 1 3 - - - - 4 - - 2.4 1019.2 0.0
11/03:27am N 1 3 - - - - 5 - - 2.2 1019.2 0.0
11/03:00am N 3 4 - - - - 10 - - 3.7 1019.5 0.0
11/02:30am CALM 0 0 - - - - 4 - - 3.3 1019.6 0.0
11/02:29am CALM 0 0 - - - - 5 - - 3.4 1019.6 0.0
11/02:01am CALM 0 3 - - - - 7 - - 4.0 1019.6 0.0
11/02:00am CALM 0 3 - - - - 7 - - 3.9 1019.5 0.0
11/01:30am CALM 0 0 - - - - 3 - - 3.6 1019.3 0.0
11/01:13am CALM 0 0 - - - - 5 - - 3.4 1019.3 0.0
11/01:01am N 3 5 - - - - 7 - - 4.1 1019.2 0.0
11/01:00am N 3 5 - - - - 7 - - 4.3 1019.2 0.0
11/12:32am NNE 3 4 - - - - 5 - - 5.1 1019.6 0.0
11/12:30am NNE 3 4 - - - - 6 - - 5.3 1019.6 0.0
11/12:26am N 2 4 - - - - 8 - - 5.4 1019.6 0.0
11/12:09am CALM 0 0 - - - - 5 - - 5.0 1019.7 0.0
11/12:00am NNW 1 3 - - - - 8 - - 5.5 1019.6 0.0
 
Date/Time
EST
Wind Sea
Height
m
Swell Vis
km
Cloud Weather Temp
°C
Press
hPa
Rain since
9am
mm
Dir  Spd
kts
Gust
kts
Height
m
Period
s
Dir
10/11:30pm N 4 5 - - - - 10 - - 6.4 1019.8 0.0
10/11:00pm N 3 3 - - - - 10 - - 6.2 1019.9 0.0
10/10:56pm N 3 3 - - - - 10 - - 6.3 1019.9 0.0
10/10:46pm NNE 3 4 - - - - 5 - - 5.6 1020.0 0.0
10/10:30pm N 4 4 - - - - 8 - - 6.3 1020.3 0.0
10/10:00pm N 4 4 - - - - 10 - - 6.6 1020.3 0.0
10/09:30pm N 5 5 - - - - 10 - - 7.3 1020.1 0.0
10/09:00pm NNE 2 4 - - - - 10 - - 7.1 1019.9 0.0
10/08:30pm N 2 3 - - - - 10 - - 7.2 1020.0 0.0
10/08:00pm CALM 0 0 - - - - 10 - - 7.7 1019.8 0.0
10/07:30pm NNW 1 5 - - - - 10 - - 8.0 1019.7 0.0
10/07:00pm SSE 3 4 - - - - 10 - - 8.7 1019.3 0.0
10/06:30pm SSW 3 5 - - - - 10 - - 10.6 1019.2 0.0
10/06:00pm SSW 3 4 - - - - 10 - - 11.2 1019.0 0.0
10/05:30pm S 4 5 - - - - 10 - - 12.2 1018.9 0.0
10/05:00pm WSW 4 5 - - - - 10 - - 14.0 1019.2 0.0
10/04:30pm W 6 8 - - - - 10 - - 14.1 1019.4 0.0
10/04:00pm W 7 9 - - - - 10 Partly cloudy - 14.5 1019.6 0.0
10/03:30pm NNW 4 6 - - - - 10 Partly cloudy - 14.9 1019.8 0.0
10/03:00pm E 4 9 - - - - 10 Mostly clear - 15.4 1019.8 0.0
10/02:30pm SE 5 8 - - - - 10 Partly cloudy - 14.5 1020.3 0.0
10/02:00pm SE 7 10 - - - - 10 Partly cloudy - 14.4 1020.6 0.0
10/01:30pm ESE 7 11 - - - - 10 - - 14.0 1020.9 0.0
10/01:00pm SE 6 9 - - - - 10 - - 13.9 1021.2 0.0
10/12:30pm SSE 3 7 - - - - 10 - - 13.3 1021.7 0.0
10/12:00pm ESE 7 11 - - - - 10 - - 13.1 1022.3 0.0
10/11:30am ESE 9 13 - - - - 10 - - 12.7 1022.8 0.0
10/11:00am ESE 10 13 - - - - 10 - - 12.4 1022.6 0.0
10/10:30am ESE 10 14 - - - - 10 - - 11.8 1023.0 0.0
10/10:00am ESE 10 14 - - - - 10 - - 11.4 1023.1 0.0
10/09:30am ESE 9 13 - - - - 10 - - 10.5 1023.2 0.0
10/09:00am ESE 7 9 - - - - 10 - - 9.6 1023.3 0.2
10/08:30am ESE 7 9 - - - - 10 - - 8.0 1023.2 0.2
10/08:00am ESE 6 7 - - - - 7 - - 5.4 1022.9 0.2

Other formats

Comma delimited format used in spreadsheet applications
http://www.bom.gov.au/fwo/IDV60701/IDV60701.94870.axf

JavaScript Object Notation format (JSON) in row-major order
http://www.bom.gov.au/fwo/IDV60701/IDV60701.94870.json

Data quality

Most of these data are generated automatically and are frequently updated. Quality checks on data are not normally performed. It is possible for incorrect values to appear. Refer to information at About Latest Weather Observations and please check the disclaimer before using these data.